Summerton, SC (29148)

9:44 AM EST on December 04, 2016 (GMT -0500)
Dingle Pond | | Change Station

Elev 95 ft 33.51 °N, 80.41 °W | Updated 13 seconds ago

Overcast
Overcast
50.2 °F
Feels Like 50.2 °F
N
4.5
Wind Variable Wind from SE
Gusts 5.4 mph

Today
High -- | Low -- °F
--% Chance of Precip.
Yesterday
High -- | Low -- °F
Precip. -- in
Pressure 30.24 in
Visibility 10.0 miles
Clouds Overcast 6000 ft
Dew Point 38 °F
Humidity 63%
Rainfall 0.00 in
Snow Depth Not available.
7:10 AM 5:12 PM
Waxing Crescent, 23% visible
METAR KSSC 041358Z AUTO 06006KT 10SM OVC060 08/04 A3023 RMK AO2 SLP239 T00810042 $
Pressure 30.24 in
Visibility 10.0 miles
Clouds Overcast 6000 ft
Dew Point 38 °F
Humidity 63%
Rainfall 0.00 in
Snow Depth Not available.
7:10 AM 5:12 PM
Waxing Crescent, 23% visible
METAR KSSC 041358Z AUTO 06006KT 10SM OVC060 08/04 A3023 RMK AO2 SLP239 T00810042 $

10-Day Weather Forecast

Almanac

Astronomy

Dec. 04, 2016 Rise Set
Actual Time
Civil Twilight
Nautical Twilight
Astronomical Twilight
Moon
Length of Visible Light
Length of Day
Tomorrow will be .
, % of the Moon is Illuminated

Today's Extremes

State Highs State Lows

Community

WunderPhotos

Upload Photos

1,955,602 photos uploaded!

WunderBlog® & News

Nearby

Air Quality

  Air Quality AQ Index Pollutant
Not available.

Snow Depth

Station Depth Elevation

Earthquake Activity

City Distance Mag. Time & Date
Minimum magnitude displayed is 2.5.

Coastal Water Temperatures

Place Temperature

Stations

Nearby Weather Stations

Station Location Temp. Windchill Dew Point Humidity Wind Precip. Elev Updated Type
                   

Watches & Warnings

There are currently no watches in effect.